createdAt,value
2022-09-15T00:01:11.707Z,23.15
2022-09-15T00:03:39.511Z,25.08
2022-09-15T00:06:08.919Z,25.27
2022-09-15T00:08:35.815Z,23.60
2022-09-15T00:11:17.141Z,23.45
2022-09-15T00:13:44.906Z,26.88
2022-09-15T00:16:15.209Z,23.75
2022-09-15T00:18:43.797Z,26.58
2022-09-15T00:21:15.414Z,25.88
2022-09-15T00:23:42.659Z,24.17
2022-09-15T00:26:12.966Z,23.52
2022-09-15T00:28:40.768Z,25.98
2022-09-15T00:31:15.208Z,23.00
2022-09-15T00:33:43.343Z,23.17
2022-09-15T00:36:12.190Z,27.05
2022-09-15T00:38:39.123Z,25.45
2022-09-15T00:41:08.552Z,25.63
2022-09-15T00:44:04.177Z,30.45
2022-09-15T00:46:58.705Z,27.27
2022-09-15T00:49:36.463Z,29.70
2022-09-15T00:52:03.593Z,26.88
2022-09-15T00:54:53.180Z,24.48
2022-09-15T00:57:25.877Z,22.38
2022-09-15T00:59:56.262Z,25.70
2022-09-15T01:02:32.632Z,29.05
2022-09-15T01:05:02.408Z,28.17
2022-09-15T01:07:47.541Z,26.88
2022-09-15T01:10:29.306Z,22.35
2022-09-15T01:13:06.713Z,28.33
2022-09-15T01:16:21.209Z,26.50
2022-09-15T01:19:25.453Z,25.08
2022-09-15T01:22:16.538Z,23.25
2022-09-15T01:25:10.512Z,21.15
2022-09-15T01:28:05.373Z,27.63
2022-09-15T01:30:54.460Z,26.15
2022-09-15T01:33:58.011Z,28.35
2022-09-15T01:36:48.306Z,28.23
2022-09-15T01:39:28.393Z,26.55
2022-09-15T01:42:08.137Z,25.30
2022-09-15T01:44:45.441Z,31.90
2022-09-15T01:47:18.336Z,25.85
2022-09-15T01:49:52.761Z,27.92
2022-09-15T01:52:24.085Z,28.90
2022-09-15T01:55:02.070Z,25.65
2022-09-15T01:57:29.083Z,24.80
2022-09-15T01:59:56.664Z,25.35
2022-09-15T02:02:41.890Z,24.00
2022-09-15T02:05:21.641Z,23.98
2022-09-15T02:07:57.817Z,26.35
2022-09-15T02:10:43.857Z,23.08
2022-09-15T02:13:55.348Z,26.02
2022-09-15T02:16:27.854Z,27.25
2022-09-15T02:19:31.611Z,26.13
2022-09-15T02:22:27.075Z,25.75
2022-09-15T02:25:05.726Z,26.48
2022-09-15T02:27:44.206Z,25.13
2022-09-15T02:30:17.142Z,25.48
2022-09-15T02:32:58.189Z,21.90
2022-09-15T02:35:29.889Z,29.05
2022-09-15T02:37:58.300Z,23.30
2022-09-15T02:40:25.282Z,22.30
2022-09-15T02:43:03.709Z,23.85
2022-09-15T02:47:59.124Z,24.17
2022-09-15T02:50:26.739Z,23.05
2022-09-15T02:52:55.543Z,25.13
2022-09-15T02:55:23.952Z,22.90
2022-09-15T02:57:50.746Z,24.67
2022-09-15T03:00:20.020Z,22.50
2022-09-15T03:02:50.353Z,24.75
2022-09-15T03:05:22.201Z,22.55
2022-09-15T03:07:50.259Z,23.38
2022-09-15T03:10:17.742Z,22.23
2022-09-15T03:12:50.933Z,21.20
2022-09-15T03:15:22.698Z,30.38
2022-09-15T03:17:50.579Z,30.08
2022-09-15T03:20:28.927Z,27.95
2022-09-15T03:25:23.489Z,22.60
2022-09-15T03:27:50.261Z,21.02
2022-09-15T03:30:17.141Z,22.42
2022-09-15T03:32:43.941Z,21.60
2022-09-15T03:35:10.711Z,22.38
2022-09-15T03:37:37.513Z,25.55
2022-09-15T03:40:05.307Z,20.08
2022-09-15T03:42:32.364Z,26.95
2022-09-15T03:44:59.225Z,21.95
2022-09-15T03:47:25.990Z,22.38
2022-09-15T03:49:52.797Z,23.83
2022-09-15T03:52:19.612Z,18.50
2022-09-15T03:54:48.854Z,21.77
2022-09-15T03:57:15.634Z,20.08
2022-09-15T03:59:42.649Z,22.23
2022-09-15T04:02:09.489Z,22.63
2022-09-15T04:04:36.804Z,21.23
2022-09-15T04:07:03.625Z,23.27
2022-09-15T04:09:31.403Z,22.30
2022-09-15T04:11:58.289Z,20.73
2022-09-15T04:14:25.102Z,20.48
2022-09-15T04:16:52.302Z,22.75
2022-09-15T04:19:19.215Z,24.92
2022-09-15T04:21:47.441Z,20.88
2022-09-15T04:24:14.323Z,21.83
2022-09-15T04:26:41.286Z,20.63
2022-09-15T04:29:15.013Z,22.92
2022-09-15T04:31:42.322Z,18.48
2022-09-15T04:34:09.421Z,21.40
2022-09-15T04:36:36.286Z,20.15
2022-09-15T04:39:04.248Z,18.05
2022-09-15T04:41:31.134Z,19.27
2022-09-15T04:43:58.543Z,21.35
2022-09-15T04:46:26.089Z,21.73
2022-09-15T04:48:53.983Z,20.70
2022-09-15T04:51:23.193Z,19.23
2022-09-15T04:53:51.994Z,20.83
2022-09-15T04:56:23.474Z,22.08
2022-09-15T04:58:57.277Z,17.33
2022-09-15T05:01:30.335Z,20.85
2022-09-15T05:03:57.745Z,19.60
2022-09-15T05:06:27.640Z,18.67
2022-09-15T05:08:57.521Z,22.00
2022-09-15T05:11:26.343Z,23.08
2022-09-15T05:13:53.541Z,22.67
2022-09-15T05:16:26.288Z,19.25
2022-09-15T05:18:56.609Z,18.67
2022-09-15T05:21:24.586Z,20.75
2022-09-15T05:23:52.771Z,18.02
2022-09-15T05:26:26.473Z,22.33
2022-09-15T05:28:53.862Z,22.20
2022-09-15T05:31:33.831Z,19.08
2022-09-15T05:34:05.426Z,24.27
2022-09-15T05:36:33.301Z,21.40
2022-09-15T05:39:01.636Z,20.40
2022-09-15T05:41:29.847Z,18.25
2022-09-15T05:43:58.253Z,21.70
2022-09-15T05:46:26.313Z,17.10
2022-09-15T05:48:56.180Z,20.58
2022-09-15T05:51:24.177Z,20.90
2022-09-15T05:53:51.150Z,21.00
2022-09-15T05:56:18.909Z,18.55
2022-09-15T05:58:47.782Z,20.50
2022-09-15T06:01:28.848Z,16.05
2022-09-15T06:03:56.983Z,20.02
2022-09-15T06:06:25.924Z,21.10
2022-09-15T06:08:59.137Z,16.95
2022-09-15T06:11:33.653Z,17.33
2022-09-15T06:14:03.480Z,16.50
2022-09-15T06:16:35.981Z,18.35
2022-09-15T06:19:03.621Z,18.88
2022-09-15T06:21:33.084Z,17.98
2022-09-15T06:24:04.492Z,16.95
2022-09-15T06:26:31.470Z,17.70
2022-09-15T06:29:02.056Z,15.30
2022-09-15T06:31:32.198Z,16.52
2022-09-15T06:34:00.533Z,16.45
2022-09-15T06:36:30.561Z,21.63
2022-09-15T06:38:58.836Z,17.98
2022-09-15T06:41:32.972Z,16.45
2022-09-15T06:44:21.326Z,17.95
2022-09-15T06:46:49.388Z,16.15
2022-09-15T06:49:17.301Z,14.07
2022-09-15T06:51:44.215Z,14.05
2022-09-15T06:54:11.877Z,14.13
2022-09-15T06:56:38.750Z,13.43
2022-09-15T06:59:06.163Z,16.92
2022-09-15T07:01:34.051Z,14.63
2022-09-15T07:04:04.327Z,13.57
2022-09-15T07:06:33.750Z,13.48
2022-09-15T07:09:02.443Z,14.73
2022-09-15T07:11:30.334Z,15.63
2022-09-15T07:13:57.337Z,14.20
2022-09-15T07:16:25.685Z,12.35
2022-09-15T07:18:57.117Z,14.93
2022-09-15T07:21:24.654Z,15.82
2022-09-15T07:23:52.134Z,12.30
2022-09-15T07:26:27.128Z,15.68
2022-09-15T07:29:01.031Z,15.38
2022-09-15T07:31:31.811Z,12.15
2022-09-15T07:34:02.485Z,10.25
2022-09-15T07:36:31.215Z,10.57
2022-09-15T07:38:58.587Z,9.65
2022-09-15T07:41:29.692Z,12.18
2022-09-15T07:43:59.279Z,12.65
2022-09-15T07:46:30.553Z,14.00
2022-09-15T07:48:57.560Z,16.60
2022-09-15T07:51:25.962Z,6.93
2022-09-15T07:53:54.260Z,8.27
2022-09-15T07:56:23.841Z,12.95
2022-09-15T07:58:51.123Z,11.65
2022-09-15T08:01:22.328Z,11.38
2022-09-15T08:03:52.372Z,7.68
2022-09-15T08:06:23.204Z,9.98
2022-09-15T08:08:55.077Z,10.55
2022-09-15T08:11:26.606Z,11.82
2022-09-15T08:13:53.487Z,9.15
2022-09-15T08:16:24.339Z,10.10
2022-09-15T08:18:55.331Z,12.77
2022-09-15T08:21:23.745Z,11.05
2022-09-15T08:23:54.068Z,9.43
2022-09-15T08:26:21.061Z,8.93
2022-09-15T08:28:49.320Z,7.40
2022-09-15T08:31:17.372Z,9.93
2022-09-15T08:33:49.890Z,7.88
2022-09-15T08:36:17.712Z,9.52
2022-09-15T08:38:46.093Z,5.70
2022-09-15T08:41:24.242Z,7.57
2022-09-15T08:44:17.113Z,9.50
2022-09-15T08:47:05.301Z,10.65
2022-09-15T08:50:23.051Z,6.38
2022-09-15T08:53:02.544Z,9.18
2022-09-15T08:55:52.513Z,8.15
2022-09-15T08:58:24.767Z,9.07
2022-09-15T09:01:21.979Z,4.90
2022-09-15T09:04:29.348Z,7.57
2022-09-15T09:07:04.867Z,8.52
2022-09-15T09:10:13.072Z,7.03
2022-09-15T09:13:20.252Z,8.57
2022-09-15T09:16:56.382Z,6.45
2022-09-15T09:19:39.710Z,7.88
2022-09-15T09:22:14.051Z,4.90
2022-09-15T09:24:51.753Z,6.07
2022-09-15T09:27:28.811Z,5.97
2022-09-15T09:30:03.685Z,4.95
2022-09-15T09:32:47.965Z,7.40
2022-09-15T09:35:28.747Z,6.43
2022-09-15T09:37:56.721Z,4.07
2022-09-15T09:40:23.660Z,4.75
2022-09-15T09:42:50.606Z,4.90
2022-09-15T09:45:19.658Z,4.82
2022-09-15T09:47:46.504Z,6.60
2022-09-15T09:50:44.366Z,7.38
2022-09-15T09:53:26.776Z,6.20
2022-09-15T09:56:14.297Z,6.18
2022-09-15T09:58:41.139Z,5.82
2022-09-15T10:01:18.469Z,10.73
2022-09-15T10:03:46.775Z,7.47
2022-09-15T10:06:22.258Z,3.35
2022-09-15T10:08:59.159Z,5.80
2022-09-15T10:11:51.594Z,7.35
2022-09-15T10:14:41.884Z,8.73
2022-09-15T10:17:21.147Z,8.00
2022-09-15T10:19:53.035Z,10.93
2022-09-15T10:25:20.351Z,7.88
2022-09-15T10:28:08.828Z,9.88
2022-09-15T10:30:37.658Z,5.28
2022-09-15T10:33:29.838Z,9.40
2022-09-15T10:36:07.558Z,9.27
2022-09-15T10:39:17.838Z,5.10
2022-09-15T10:41:59.284Z,5.20
2022-09-15T10:44:40.204Z,8.40
2022-09-15T10:47:47.315Z,4.03
2022-09-15T10:50:45.569Z,6.03
2022-09-15T10:53:46.239Z,4.30
2022-09-15T10:56:34.552Z,3.22
2022-09-15T10:59:38.649Z,6.15
2022-09-15T11:02:37.275Z,3.42
2022-09-15T11:05:36.622Z,3.72
2022-09-15T11:08:29.471Z,2.60
2022-09-15T11:11:04.724Z,5.90
2022-09-15T11:14:19.223Z,4.18
2022-09-15T11:17:19.699Z,5.28
2022-09-15T11:20:33.529Z,4.07
2022-09-15T11:23:18.959Z,3.10
2022-09-15T11:25:54.998Z,2.67
2022-09-15T11:28:57.599Z,5.47
2022-09-15T11:31:36.330Z,3.15
2022-09-15T11:34:25.071Z,5.50
2022-09-15T11:37:11.061Z,4.35
2022-09-15T11:39:47.132Z,4.63
2022-09-15T11:42:41.655Z,6.75
2022-09-15T11:45:35.075Z,4.75
2022-09-15T11:48:19.605Z,4.82
2022-09-15T11:53:33.637Z,6.80
2022-09-15T11:56:22.397Z,4.88
2022-09-15T11:59:13.133Z,7.80
2022-09-15T12:04:29.258Z,5.47
2022-09-15T12:07:23.248Z,6.05
2022-09-15T12:09:50.136Z,4.88
2022-09-15T12:12:21.461Z,4.13
2022-09-15T12:14:52.789Z,3.85
2022-09-15T12:17:46.028Z,5.88
2022-09-15T12:20:17.749Z,4.18
2022-09-15T12:22:54.410Z,7.40
2022-09-15T12:25:45.592Z,4.30
2022-09-15T12:28:24.516Z,4.53
2022-09-15T12:31:23.781Z,4.95
2022-09-15T12:34:16.684Z,7.05
2022-09-15T12:36:49.427Z,5.03
2022-09-15T12:39:44.518Z,6.50
2022-09-15T12:42:22.190Z,4.97
2022-09-15T12:45:19.889Z,4.53
2022-09-15T12:48:02.223Z,6.82
2022-09-15T12:50:37.655Z,4.85
2022-09-15T12:53:30.726Z,5.18
2022-09-15T12:56:05.353Z,1.98
2022-09-15T12:58:40.598Z,2.45
2022-09-15T13:01:19.693Z,5.47
2022-09-15T13:03:47.521Z,4.15
2022-09-15T13:06:25.318Z,7.05
2022-09-15T13:09:01.372Z,1.60
2022-09-15T13:11:37.480Z,7.45
2022-09-15T13:14:06.644Z,2.90
2022-09-15T13:16:33.399Z,8.68
2022-09-15T13:19:13.246Z,3.47
2022-09-15T13:21:47.893Z,4.32
2022-09-15T13:24:32.984Z,3.47
2022-09-15T13:27:03.214Z,3.08
2022-09-15T13:29:32.993Z,4.38
2022-09-15T13:32:27.027Z,2.83
2022-09-15T13:35:32.042Z,5.00
2022-09-15T13:38:38.988Z,3.80
2022-09-15T13:41:16.486Z,1.65
2022-09-15T13:44:20.606Z,7.55
2022-09-15T13:46:53.441Z,4.07
2022-09-15T13:49:43.716Z,11.73
2022-09-15T13:52:54.460Z,3.70
2022-09-15T13:55:27.778Z,5.57
2022-09-15T14:00:55.753Z,11.85
2022-09-15T14:03:39.193Z,4.90
2022-09-15T14:06:24.364Z,13.68
2022-09-15T14:09:01.002Z,21.35
2022-09-15T14:11:39.197Z,17.25
2022-09-15T14:14:25.122Z,68.03
2022-09-15T14:16:52.654Z,7.07
2022-09-15T14:19:33.944Z,5.93
2022-09-15T14:22:28.951Z,3.38
2022-09-15T14:24:58.640Z,68.97
2022-09-15T14:27:32.191Z,38.75
2022-09-15T14:30:06.818Z,101.05
2022-09-15T14:32:44.998Z,11.10
2022-09-15T14:35:23.358Z,21.55
2022-09-15T14:37:56.740Z,5.57
2022-09-15T14:40:29.374Z,3.17
2022-09-15T14:42:57.076Z,3.25
2022-09-15T14:46:02.927Z,7.38
2022-09-15T14:48:28.145Z,7.22
2022-09-15T14:51:08.634Z,5.10
2022-09-15T14:53:40.981Z,7.55
2022-09-15T14:56:21.256Z,5.57
2022-09-15T14:58:47.970Z,5.10
2022-09-15T15:01:22.470Z,4.55
2022-09-15T15:04:23.915Z,4.15
2022-09-15T15:07:22.778Z,4.13
2022-09-15T15:10:21.081Z,4.13
2022-09-15T15:12:55.185Z,6.57
2022-09-15T15:15:22.941Z,3.13
2022-09-15T15:17:54.726Z,1.98
2022-09-15T15:20:30.378Z,3.85
2022-09-15T15:23:23.686Z,2.63
2022-09-15T15:25:52.057Z,4.15
2022-09-15T15:28:34.819Z,7.22
2022-09-15T15:31:19.698Z,2.10
2022-09-15T15:33:49.737Z,3.90
2022-09-15T15:36:23.872Z,4.78
2022-09-15T15:39:04.994Z,3.78
2022-09-15T15:41:36.822Z,5.68
2022-09-15T15:44:22.500Z,5.40
2022-09-15T15:46:55.705Z,4.95
2022-09-15T15:49:29.480Z,2.92
2022-09-15T15:51:59.774Z,7.30
2022-09-15T15:54:27.695Z,4.13
2022-09-15T15:56:55.186Z,4.95
2022-09-15T15:59:22.032Z,2.58
2022-09-15T16:01:54.988Z,2.17
2022-09-15T16:04:21.987Z,5.07
2022-09-15T16:06:49.339Z,4.00
2022-09-15T16:09:18.779Z,6.68
2022-09-15T16:11:45.705Z,5.63
2022-09-15T16:14:13.878Z,4.82
2022-09-15T16:16:41.040Z,3.35
2022-09-15T16:19:08.545Z,5.40
2022-09-15T16:21:43.069Z,3.00
2022-09-15T16:24:15.837Z,3.90
2022-09-15T16:26:43.728Z,5.00
2022-09-15T16:29:11.628Z,10.18
2022-09-15T16:31:39.393Z,4.88
2022-09-15T16:34:06.337Z,2.50
2022-09-15T16:36:36.378Z,3.78
2022-09-15T16:39:03.805Z,6.80
2022-09-15T16:41:30.651Z,1.45
2022-09-15T16:43:57.602Z,6.82
2022-09-15T16:46:25.159Z,3.90
2022-09-15T16:48:52.120Z,2.67
2022-09-15T16:51:28.853Z,6.20
2022-09-15T16:53:56.857Z,4.97
2022-09-15T16:56:23.670Z,3.25
2022-09-15T16:58:53.843Z,4.97
2022-09-15T17:01:25.214Z,5.97
2022-09-15T17:03:52.033Z,5.20
2022-09-15T17:06:18.968Z,4.07
2022-09-15T17:08:46.007Z,3.08
2022-09-15T17:11:18.584Z,4.18
2022-09-15T17:13:46.891Z,3.50
2022-09-15T17:16:19.304Z,5.57
2022-09-15T17:18:46.808Z,5.82
2022-09-15T17:21:16.477Z,6.40
2022-09-15T17:23:47.357Z,6.38
2022-09-15T17:26:20.051Z,3.58
2022-09-15T17:28:47.601Z,4.13
2022-09-15T17:31:24.801Z,3.35
2022-09-15T17:33:53.377Z,5.85
2022-09-15T17:36:20.402Z,4.90
2022-09-15T17:38:48.877Z,2.55
2022-09-15T17:41:19.375Z,6.88
2022-09-15T17:43:46.882Z,6.13
2022-09-15T17:46:14.162Z,4.40
2022-09-15T17:48:41.149Z,2.42
2022-09-15T17:51:16.463Z,1.95
2022-09-15T17:53:45.169Z,3.17
2022-09-15T17:56:12.300Z,3.38
2022-09-15T17:58:39.611Z,4.47
2022-09-15T18:01:06.653Z,3.90
2022-09-15T18:03:36.650Z,5.43
2022-09-15T18:06:08.035Z,5.60
2022-09-15T18:08:36.136Z,6.40
2022-09-15T18:11:05.117Z,3.88
2022-09-15T18:13:32.434Z,4.63
2022-09-15T18:16:05.584Z,2.38
2022-09-15T18:18:32.570Z,2.72
2022-09-15T18:20:59.693Z,6.05
2022-09-15T18:23:29.493Z,4.38
2022-09-15T18:25:57.147Z,3.13
2022-09-15T18:28:24.042Z,7.35
2022-09-15T18:30:52.090Z,4.63
2022-09-15T18:33:25.766Z,6.93
2022-09-15T18:35:56.256Z,4.43
2022-09-15T18:38:23.604Z,3.15
2022-09-15T18:40:55.399Z,2.88
2022-09-15T18:43:28.119Z,5.40
2022-09-15T18:46:00.043Z,5.30
2022-09-15T18:50:54.962Z,4.15
2022-09-15T18:53:22.245Z,5.10
2022-09-15T18:55:49.089Z,3.47
2022-09-15T18:58:16.049Z,3.35
2022-09-15T19:00:45.905Z,3.70
2022-09-15T19:03:14.083Z,8.57
2022-09-15T19:05:41.633Z,7.60
2022-09-15T19:08:09.242Z,6.60
2022-09-15T19:10:36.208Z,4.45
2022-09-15T19:13:03.064Z,4.25
2022-09-15T19:15:31.297Z,6.32
2022-09-15T19:17:58.129Z,6.15
2022-09-15T19:20:25.176Z,6.55
2022-09-15T19:22:51.973Z,11.13
2022-09-15T19:25:19.400Z,6.90
2022-09-15T19:27:47.884Z,6.43
2022-09-15T19:30:15.173Z,4.38
2022-09-15T19:32:42.962Z,4.43
2022-09-15T19:35:11.334Z,5.88
2022-09-15T19:37:41.510Z,2.22
2022-09-15T19:40:12.912Z,1.55
2022-09-15T19:42:42.573Z,2.83
2022-09-15T19:45:11.435Z,4.13
2022-09-15T19:47:40.204Z,4.65
2022-09-15T19:50:08.813Z,5.75
2022-09-15T19:52:35.829Z,2.35
2022-09-15T19:55:03.783Z,5.07
2022-09-15T19:57:30.572Z,5.60
2022-09-15T19:59:57.398Z,1.77
2022-09-15T20:02:24.395Z,5.93
2022-09-15T20:04:51.216Z,3.38
2022-09-15T20:07:18.212Z,5.55
2022-09-15T20:09:45.121Z,2.55
2022-09-15T20:12:11.984Z,6.15
2022-09-15T20:14:39.155Z,5.03
2022-09-15T20:17:05.979Z,6.20
2022-09-15T20:19:33.548Z,7.70
2022-09-15T20:22:00.402Z,3.10
2022-09-15T20:24:27.176Z,4.85
2022-09-15T20:26:54.441Z,4.28
2022-09-15T20:29:21.642Z,4.40
2022-09-15T20:31:48.874Z,9.93
2022-09-15T20:34:16.718Z,3.58
2022-09-15T20:36:43.720Z,6.72
2022-09-15T20:39:14.897Z,4.60
2022-09-15T20:41:45.937Z,8.90
2022-09-15T20:44:13.201Z,4.22
2022-09-15T20:46:40.555Z,5.60
2022-09-15T20:49:08.935Z,3.03
2022-09-15T20:51:35.916Z,3.03
2022-09-15T20:54:04.427Z,4.55
2022-09-15T20:56:35.078Z,3.50
2022-09-15T20:59:04.327Z,4.13
2022-09-15T21:01:37.777Z,4.03
2022-09-15T21:04:06.731Z,4.43
2022-09-15T21:06:34.079Z,5.50
2022-09-15T21:09:01.201Z,4.07
2022-09-15T21:11:30.015Z,5.32
2022-09-15T21:13:57.524Z,6.07
2022-09-15T21:16:28.739Z,6.57
2022-09-15T21:18:58.459Z,6.95
2022-09-15T21:21:32.027Z,5.63
2022-09-15T21:24:03.808Z,2.70
2022-09-15T21:27:00.531Z,2.90
2022-09-15T21:29:28.725Z,7.00
2022-09-15T21:31:56.336Z,8.88
2022-09-15T21:34:24.013Z,3.80
2022-09-15T21:36:53.414Z,6.50
2022-09-15T21:39:21.283Z,8.23
2022-09-15T21:41:48.101Z,4.85
2022-09-15T21:44:15.155Z,7.47
2022-09-15T21:46:41.974Z,3.88
2022-09-15T21:49:09.091Z,4.72
2022-09-15T21:51:36.268Z,4.07
2022-09-15T21:54:03.144Z,4.85
2022-09-15T21:56:30.260Z,5.20
2022-09-15T21:58:57.484Z,6.22
2022-09-15T22:01:29.085Z,4.72
2022-09-15T22:04:02.358Z,5.20
2022-09-15T22:06:35.693Z,4.85
2022-09-15T22:09:23.996Z,4.68
2022-09-15T22:11:51.187Z,3.83
2022-09-15T22:14:18.035Z,4.93
2022-09-15T22:16:44.966Z,5.75
2022-09-15T22:19:12.314Z,3.55
2022-09-15T22:21:41.744Z,3.13
2022-09-15T22:24:12.916Z,5.90
2022-09-15T22:26:41.448Z,8.35
2022-09-15T22:29:08.328Z,4.82
2022-09-15T22:31:36.110Z,5.70
2022-09-15T22:34:03.891Z,3.92
2022-09-15T22:36:32.318Z,3.80
2022-09-15T22:39:04.566Z,6.15
2022-09-15T22:41:35.078Z,4.75
2022-09-15T22:44:03.190Z,6.82
2022-09-15T22:46:30.351Z,7.93
2022-09-15T22:48:57.442Z,6.82
2022-09-15T22:51:24.697Z,7.97
2022-09-15T22:53:56.702Z,11.52
2022-09-15T22:58:52.957Z,4.72
2022-09-15T23:01:26.962Z,4.65
2022-09-15T23:04:00.621Z,5.57
2022-09-15T23:06:31.723Z,4.63
2022-09-15T23:09:03.295Z,5.90
2022-09-15T23:11:33.306Z,9.05
2022-09-15T23:14:01.668Z,4.78
2022-09-15T23:16:30.803Z,5.57
2022-09-15T23:18:58.758Z,7.05
2022-09-15T23:21:25.846Z,4.47
2022-09-15T23:23:54.956Z,4.65
2022-09-15T23:26:23.912Z,7.80
2022-09-15T23:28:50.788Z,4.97
2022-09-15T23:31:18.688Z,9.23
2022-09-15T23:33:46.652Z,3.10
2022-09-15T23:36:19.298Z,5.18
2022-09-15T23:38:47.989Z,3.63
2022-09-15T23:41:16.617Z,4.85
2022-09-15T23:43:44.157Z,3.92
2022-09-15T23:46:11.312Z,6.13
2022-09-15T23:48:38.489Z,5.28
2022-09-15T23:51:05.962Z,6.88
2022-09-15T23:53:33.872Z,7.82
2022-09-15T23:56:01.004Z,3.55
2022-09-15T23:58:27.905Z,7.32
